Time;durP1;ratioP1;P1;durP2;ratioP2;P2;SDS_P1;SDS_P2;PMS_P1;PMS_P2;Temp;Humidity;BMP_temperature;BMP_pressure;BME280_temperature;BME280_humidity;BME280_pressure;Samples;Min_cycle;Max_cycle;Signal;HPM_P1;HPM_P2
2023/08/21 00:02:25;;;;;;;8.07;3.05;;;;;;;19.78;86.84;102204.53;5102975;28;20046;-50
2023/08/21 00:04:50;;;;;;;9.52;3.22;;;;;;;19.74;87.32;102220.13;5103725;28;20107;-50
2023/08/21 00:07:16;;;;;;;10.93;2.88;;;;;;;19.75;86.99;102219.16;5104842;28;20059;-51
2023/08/21 00:09:41;;;;;;;9.25;3.05;;;;;;;19.72;86.64;102226.66;5101843;28;20477;-51
2023/08/21 00:12:07;;;;;;;8.90;3.03;;;;;;;19.73;87.00;102204.09;5099679;28;20031;-51
2023/08/21 00:14:33;;;;;;;9.85;3.40;;;;;;;19.71;86.14;102198.00;5102770;28;20114;-51
2023/08/21 00:16:58;;;;;;;10.32;3.22;;;;;;;19.74;85.49;102195.84;5097741;28;20456;-51
2023/08/21 00:19:24;;;;;;;9.05;2.80;;;;;;;19.72;85.92;102192.47;5100118;28;20094;-51
2023/08/21 00:21:49;;;;;;;9.05;3.00;;;;;;;19.72;85.87;102192.47;5099415;28;20520;-50
2023/08/21 00:24:14;;;;;;;6.72;3.33;;;;;;;19.65;86.18;102183.25;5103891;28;20032;-51
2023/08/21 00:26:40;;;;;;;7.05;3.03;;;;;;;19.64;85.82;102186.94;5105158;28;20493;-51
2023/08/21 00:29:05;;;;;;;9.60;3.13;;;;;;;19.60;86.32;102194.47;5104288;28;20031;-52
2023/08/21 00:31:30;;;;;;;10.13;2.80;;;;;;;19.57;85.19;102186.66;5106508;28;20028;-51
2023/08/21 00:33:55;;;;;;;9.68;3.30;;;;;;;19.52;85.83;102188.94;5099135;28;20028;-51
2023/08/21 00:36:21;;;;;;;9.00;2.83;;;;;;;19.49;86.24;102183.00;5106757;28;20024;-53
2023/08/21 00:38:47;;;;;;;9.95;3.28;;;;;;;19.50;86.73;102190.06;5103357;28;20020;-50
2023/08/21 00:41:12;;;;;;;9.38;3.03;;;;;;;19.45;86.57;102189.66;5106403;28;20039;-51
2023/08/21 00:43:37;;;;;;;7.32;3.10;;;;;;;19.39;87.23;102191.94;5101205;28;20389;-51
2023/08/21 00:46:03;;;;;;;6.38;2.47;;;;;;;19.36;87.92;102189.50;5102783;28;20504;-51
2023/08/21 00:48:29;;;;;;;7.43;2.85;;;;;;;19.33;87.43;102199.72;5096484;28;20040;-53
2023/08/21 00:50:55;;;;;;;8.05;2.88;;;;;;;19.30;88.30;102197.31;5105404;28;20104;-50
2023/08/21 00:53:20;;;;;;;11.32;2.58;;;;;;;19.29;88.71;102199.16;5116872;27;20016;-50
2023/08/21 00:55:46;;;;;;;9.30;3.15;;;;;;;19.34;88.21;102202.28;5102638;28;20474;-50
2023/08/21 00:58:12;;;;;;;9.15;3.08;;;;;;;19.28;89.30;102194.75;5103886;28;20059;-52
2023/08/21 01:00:38;;;;;;;7.20;2.83;;;;;;;19.25;88.81;102205.81;5101339;28;20165;-51
2023/08/21 01:03:04;;;;;;;7.85;3.00;;;;;;;19.22;89.07;102212.34;5101439;28;20028;-52
2023/08/21 01:05:29;;;;;;;10.15;2.90;;;;;;;19.20;89.67;102216.16;5098522;28;20410;-52
2023/08/21 01:08:10;;;;;;;7.95;3.08;;;;;;;19.21;89.46;102210.63;5105199;28;20160;-51
2023/08/21 01:10:45;;;;;;;9.98;3.83;;;;;;;19.19;89.09;102198.31;5101035;28;20040;-54
2023/08/21 01:13:26;;;;;;;7.45;2.88;;;;;;;19.20;88.67;102178.47;5098226;28;20032;-51
2023/08/21 01:15:54;;;;;;;7.88;2.90;;;;;;;19.19;88.69;102177.63;5104148;28;20473;-51
2023/08/21 01:18:20;;;;;;;6.63;2.65;;;;;;;19.22;88.65;102176.50;5100438;28;20026;-51
2023/08/21 01:20:47;;;;;;;8.48;3.20;;;;;;;19.18;89.23;102173.22;5099068;28;20393;-51
2023/08/21 01:23:30;;;;;;;6.88;2.90;;;;;;;19.17;88.44;102173.38;5100689;28;20032;-51
2023/08/21 01:25:55;;;;;;;8.63;2.97;;;;;;;19.08;90.50;102166.13;5098860;28;20077;-51
2023/08/21 01:28:21;;;;;;;8.10;2.80;;;;;;;19.08;89.56;102163.44;5098303;28;20420;-54
2023/08/21 01:30:49;;;;;;;6.43;2.92;;;;;;;19.04;88.79;102165.56;5102342;28;20474;-51
2023/08/21 01:33:16;;;;;;;7.85;2.88;;;;;;;19.00;90.16;102167.69;5084484;28;20028;-51
2023/08/21 01:35:42;;;;;;;6.43;2.63;;;;;;;18.98;90.06;102163.44;5101825;28;20115;-53
2023/08/21 01:38:07;;;;;;;8.18;2.90;;;;;;;18.97;90.45;102167.13;5102500;27;20389;-53
2023/08/21 01:40:33;;;;;;;8.20;3.00;;;;;;;18.91;90.97;102167.69;5103574;28;20027;-51
2023/08/21 01:42:58;;;;;;;10.10;3.47;;;;;;;18.86;90.87;102166.25;5099470;28;20085;-50
2023/08/21 01:45:23;;;;;;;9.15;3.28;;;;;;;18.82;91.53;102170.19;5102467;28;20020;-51
2023/08/21 01:47:49;;;;;;;6.68;2.85;;;;;;;18.78;91.48;102173.28;5104447;28;20040;-52
2023/08/21 01:50:14;;;;;;;8.88;3.10;;;;;;;18.74;91.47;102175.41;5100747;28;20140;-51
2023/08/21 01:52:39;;;;;;;10.57;2.97;;;;;;;18.71;92.24;102182.94;5101672;28;20074;-52
2023/08/21 01:55:07;;;;;;;6.95;3.28;;;;;;;18.72;91.69;102180.09;5102417;28;20032;-50
2023/08/21 01:57:33;;;;;;;7.95;3.42;;;;;;;18.67;91.85;102188.56;5103526;28;20012;-50
2023/08/21 01:59:58;;;;;;;7.15;2.95;;;;;;;18.62;92.20;102190.84;5101625;28;20028;-52
2023/08/21 02:02:24;;;;;;;7.88;3.20;;;;;;;18.63;92.48;102191.69;5099941;28;20044;-50
2023/08/21 02:04:49;;;;;;;6.88;3.03;;;;;;;18.57;92.64;102198.47;5104491;28;20055;-52
2023/08/21 02:07:14;;;;;;;9.52;3.58;;;;;;;18.56;92.69;102201.28;5096243;28;20482;-51
2023/08/21 02:09:40;;;;;;;5.65;3.08;;;;;;;18.56;92.82;102195.91;5097730;28;20089;-51
2023/08/21 02:12:06;;;;;;;8.57;3.20;;;;;;;18.55;93.02;102202.28;5101529;28;20072;-50
2023/08/21 02:14:31;;;;;;;8.02;3.53;;;;;;;18.48;93.83;102197.47;5100898;28;20035;-50
2023/08/21 02:16:56;;;;;;;10.82;3.42;;;;;;;18.49;93.59;102195.59;5103384;28;20027;-51
2023/08/21 02:19:22;;;;;;;8.07;3.20;;;;;;;18.46;93.65;102194.03;5099969;28;20029;-51
2023/08/21 02:21:47;;;;;;;8.95;3.55;;;;;;;18.43;93.13;102196.16;5103874;28;20424;-51
2023/08/21 02:24:12;;;;;;;8.57;3.97;;;;;;;18.41;93.98;102198.97;5101167;28;20023;-50
2023/08/21 02:26:38;;;;;;;7.20;3.20;;;;;;;18.34;94.65;102196.97;5099780;28;20024;-50
2023/08/21 02:29:03;;;;;;;7.93;3.33;;;;;;;18.35;94.22;102199.50;5104625;28;20020;-50
2023/08/21 02:31:29;;;;;;;7.45;3.40;;;;;;;18.32;94.51;102191.72;5097368;28;20058;-51
2023/08/21 02:33:54;;;;;;;6.95;3.58;;;;;;;18.30;94.76;102191.88;5100064;28;20157;-51
2023/08/21 02:36:19;;;;;;;7.00;3.47;;;;;;;18.23;94.40;102196.06;5105024;28;20093;-52
2023/08/21 02:38:45;;;;;;;9.18;3.45;;;;;;;18.22;94.78;102201.56;5095712;28;20020;-51
2023/08/21 02:41:10;;;;;;;8.88;3.53;;;;;;;18.17;94.95;102190.38;5104959;28;20027;-51
2023/08/21 02:43:35;;;;;;;8.27;3.60;;;;;;;18.15;94.78;102192.34;5100627;28;20034;-50
2023/08/21 02:46:00;;;;;;;8.52;3.45;;;;;;;18.05;95.52;102192.28;5098981;28;20274;-51
2023/08/21 02:48:26;;;;;;;9.80;3.42;;;;;;;18.02;95.61;102196.13;5101094;28;20047;-51
2023/08/21 02:50:51;;;;;;;11.80;3.70;;;;;;;18.01;96.01;102196.25;5098941;28;20024;-51
2023/08/21 02:53:16;;;;;;;7.50;3.20;;;;;;;18.01;95.35;102190.88;5103194;28;20041;-52
2023/08/21 02:55:42;;;;;;;7.60;3.30;;;;;;;17.93;95.91;102199.59;5102689;28;20020;-50
2023/08/21 02:58:07;;;;;;;5.85;3.47;;;;;;;17.90;96.26;102192.66;5101954;28;20816;-51
2023/08/21 03:00:32;;;;;;;8.90;3.63;;;;;;;17.85;96.72;102197.56;5103657;28;20028;-51
2023/08/21 03:02:58;;;;;;;7.60;3.10;;;;;;;17.87;96.26;102190.22;5102206;28;20028;-52
2023/08/21 03:05:23;;;;;;;8.60;3.50;;;;;;;17.77;97.06;102191.97;5099230;28;20033;-50
2023/08/21 03:07:48;;;;;;;9.57;3.30;;;;;;;17.81;96.79;102185.34;5101491;28;20493;-53
2023/08/21 03:10:14;;;;;;;7.40;3.05;;;;;;;17.76;96.70;102187.59;5105851;28;20070;-52
2023/08/21 03:12:39;;;;;;;7.13;3.00;;;;;;;17.76;96.11;102185.72;5098789;28;20030;-50
2023/08/21 03:15:05;;;;;;;4.93;2.80;;;;;;;17.73;96.52;102188.69;5097703;28;20032;-52
2023/08/21 03:17:30;;;;;;;9.10;3.38;;;;;;;17.69;97.26;102189.94;5100442;28;20023;-52
2023/08/21 03:19:56;;;;;;;8.82;3.40;;;;;;;17.66;97.23;102192.03;5101704;28;20019;-51
2023/08/21 03:22:21;;;;;;;10.15;3.30;;;;;;;17.68;97.76;102190.06;5100675;28;20069;-53
2023/08/21 03:24:46;;;;;;;9.85;3.55;;;;;;;17.66;97.67;102192.88;5098670;28;20362;-51
2023/08/21 03:27:14;;;;;;;10.57;3.15;;;;;;;17.65;97.41;102195.72;5101040;28;20039;-51
2023/08/21 03:29:40;;;;;;;14.57;3.37;;;;;;;17.67;97.52;102201.78;5097675;28;20058;-53
2023/08/21 03:32:05;;;;;;;8.75;3.47;;;;;;;17.64;97.57;102202.91;5100622;28;20056;-52
2023/08/21 03:34:30;;;;;;;10.20;3.43;;;;;;;17.60;97.56;102201.47;5099740;28;20032;-52
2023/08/21 03:36:56;;;;;;;8.13;3.60;;;;;;;17.56;98.04;102205.41;5102066;28;20274;-54
2023/08/21 03:39:21;;;;;;;6.90;3.75;;;;;;;17.52;97.59;102202.13;5095104;28;20073;-53
2023/08/21 03:41:46;;;;;;;14.55;3.42;;;;;;;17.56;97.91;102198.19;5100181;28;20023;-51
2023/08/21 03:44:12;;;;;;;11.02;3.88;;;;;;;17.49;97.98;102193.50;5093925;28;20042;-51
2023/08/21 03:46:37;;;;;;;14.43;3.55;;;;;;;17.46;97.37;102196.44;5101833;28;20059;-51
2023/08/21 03:49:02;;;;;;;11.57;3.65;;;;;;;17.45;98.58;102192.03;5078767;28;20126;-50
2023/08/21 03:51:28;;;;;;;7.93;4.05;;;;;;;17.44;98.86;102193.03;5098703;28;20024;-50
2023/08/21 03:53:53;;;;;;;15.45;3.60;;;;;;;17.44;98.39;102196.56;5102867;28;20027;-52
2023/08/21 03:56:19;;;;;;;13.63;3.50;;;;;;;17.43;98.33;102197.53;5099714;28;20040;-51
2023/08/21 03:58:44;;;;;;;9.93;3.60;;;;;;;17.35;98.02;102190.13;5099263;28;20020;-51
2023/08/21 04:01:10;;;;;;;11.32;3.55;;;;;;;17.32;98.24;102189.50;5099335;28;20512;-52
2023/08/21 04:03:35;;;;;;;6.93;3.50;;;;;;;17.27;98.40;102189.06;5097748;28;20450;-51
2023/08/21 04:06:01;;;;;;;11.98;3.67;;;;;;;17.23;98.91;102179.56;5101093;28;20115;-53
2023/08/21 04:08:26;;;;;;;7.60;3.80;;;;;;;17.20;99.52;102186.03;5100982;28;20028;-51
2023/08/21 04:10:53;;;;;;;8.57;3.67;;;;;;;17.16;98.66;102182.75;5099351;28;20032;-50
2023/08/21 04:13:19;;;;;;;10.05;3.10;;;;;;;17.15;99.62;102183.75;5103374;28;20035;-50
2023/08/21 04:15:45;;;;;;;10.02;3.90;;;;;;;17.16;99.25;102196.16;5101756;28;20032;-51
2023/08/21 04:18:10;;;;;;;6.90;3.22;;;;;;;17.16;100.00;102200.69;5099359;28;20148;-52
2023/08/21 04:20:35;;;;;;;9.07;3.60;;;;;;;17.13;100.00;102206.31;5099103;28;20114;-50
2023/08/21 04:23:01;;;;;;;13.38;3.63;;;;;;;17.10;100.00;102207.44;5103338;28;20447;-48
2023/08/21 04:25:26;;;;;;;11.40;3.45;;;;;;;17.11;100.00;102208.28;5097583;28;20362;-51
2023/08/21 04:27:51;;;;;;;9.52;3.35;;;;;;;17.11;100.00;102211.81;5100870;28;20020;-50
2023/08/21 04:30:17;;;;;;;9.82;3.55;;;;;;;17.11;100.00;102211.81;5098533;28;20558;-50
2023/08/21 04:32:42;;;;;;;15.43;3.60;;;;;;;17.12;100.00;102218.91;5101170;28;20023;-51
2023/08/21 04:35:08;;;;;;;7.65;3.72;;;;;;;17.12;100.00;102224.28;5093840;28;20024;-51
2023/08/21 04:37:34;;;;;;;14.88;4.13;;;;;;;17.13;100.00;102217.91;5094442;28;20024;-51
2023/08/21 04:39:59;;;;;;;14.35;3.88;;;;;;;17.18;100.00;102213.00;5099688;28;20034;-51
2023/08/21 04:42:24;;;;;;;8.48;3.22;;;;;;;17.18;100.00;102213.00;5101689;28;20062;-51
2023/08/21 04:44:50;;;;;;;7.00;3.50;;;;;;;17.17;100.00;102219.38;5097327;28;20116;-50
2023/08/21 04:47:20;;;;;;;7.20;3.60;;;;;;;17.18;100.00;102225.59;5105706;28;20020;-51
2023/08/21 04:49:45;;;;;;;10.73;4.07;;;;;;;17.18;100.00;102221.06;5102037;28;20405;-50
2023/08/21 04:52:11;;;;;;;12.52;4.00;;;;;;;17.20;100.00;102213.75;5101627;28;20019;-50
2023/08/21 04:54:36;;;;;;;9.13;3.77;;;;;;;17.23;100.00;102223.38;5100280;28;20027;-51
2023/08/21 04:57:01;;;;;;;10.10;3.88;;;;;;;17.24;100.00;102221.56;5100982;28;20300;-50
2023/08/21 04:59:27;;;;;;;10.18;3.92;;;;;;;17.26;100.00;102227.66;5103541;28;20019;-50
2023/08/21 05:01:52;;;;;;;10.60;4.28;;;;;;;17.27;100.00;102229.31;5104113;28;20069;-50
2023/08/21 05:04:17;;;;;;;9.15;3.63;;;;;;;17.26;100.00;102230.31;5104076;28;20122;-51
2023/08/21 05:06:43;;;;;;;12.40;4.43;;;;;;;17.24;100.00;102221.56;5098157;28;20101;-51
2023/08/21 05:09:08;;;;;;;6.40;4.03;;;;;;;17.23;100.00;102223.38;5102450;28;20036;-51
2023/08/21 05:11:33;;;;;;;7.95;3.70;;;;;;;17.27;100.00;102226.66;5102235;27;20031;-50
2023/08/21 05:13:58;;;;;;;12.98;4.53;;;;;;;17.26;100.00;102230.31;5100232;28;20362;-51
2023/08/21 05:16:24;;;;;;;11.05;4.43;;;;;;;17.25;100.00;102231.28;5105731;28;20102;-51
2023/08/21 05:18:49;;;;;;;11.80;4.47;;;;;;;17.23;100.00;102233.25;5104881;28;20030;-52
2023/08/21 05:21:14;;;;;;;8.27;4.25;;;;;;;17.24;100.00;102235.81;5101412;28;20393;-50
2023/08/21 05:23:40;;;;;;;10.75;4.22;;;;;;;17.26;100.00;102238.38;5105203;28;20055;-51
2023/08/21 05:26:05;;;;;;;16.38;5.30;;;;;;;17.29;100.00;102251.56;5102422;28;20103;-51
2023/08/21 05:28:30;;;;;;;11.80;4.25;;;;;;;17.32;100.00;102246.78;5106161;28;20028;-51
2023/08/21 05:30:57;;;;;;;13.48;4.43;;;;;;;17.34;100.00;102247.50;5098113;28;20453;-52
2023/08/21 05:33:22;;;;;;;10.98;4.93;;;;;;;17.41;100.00;102252.38;5104935;28;20028;-51
2023/08/21 05:35:47;;;;;;;19.58;5.72;;;;;;;17.45;100.00;102246.59;5102464;28;20026;-50
2023/08/21 05:38:12;;;;;;;21.08;6.20;;;;;;;17.46;100.00;102251.00;5098909;28;20518;-51
2023/08/21 05:40:40;;;;;;;19.50;5.55;;;;;;;17.50;100.00;102241.72;5103499;28;20054;-50
2023/08/21 05:43:06;;;;;;;15.75;5.20;;;;;;;17.55;100.00;102244.84;5102547;28;20024;-50
2023/08/21 05:45:31;;;;;;;12.02;4.85;;;;;;;17.58;100.00;102243.72;5100954;28;20032;-50
2023/08/21 05:47:57;;;;;;;13.45;5.20;;;;;;;17.64;100.00;102247.75;5096605;28;20531;-50
2023/08/21 05:50:22;;;;;;;20.02;5.68;;;;;;;17.68;100.00;102249.19;5104819;28;20023;-50
2023/08/21 05:52:48;;;;;;;12.73;5.25;;;;;;;17.72;100.00;102256.03;5097573;28;20032;-51
2023/08/21 05:55:13;;;;;;;15.38;5.65;;;;;;;17.78;100.00;102260.00;5098256;28;20085;-51
2023/08/21 05:57:39;;;;;;;17.83;5.20;;;;;;;17.80;100.00;102249.97;5095906;28;20020;-52
2023/08/21 06:00:08;;;;;;;12.60;5.53;;;;;;;17.86;100.00;102252.16;5098898;28;20040;-50
2023/08/21 06:02:33;;;;;;;11.85;5.13;;;;;;;17.88;100.00;102253.75;5094367;28;20458;-49
2023/08/21 06:04:58;;;;;;;12.40;5.22;;;;;;;17.91;100.00;102256.16;5099880;28;20028;-50
2023/08/21 06:07:24;;;;;;;12.32;5.22;;;;;;;17.97;100.00;102262.88;5105006;28;21534;-50
2023/08/21 06:09:49;;;;;;;13.93;5.15;;;;;;;18.02;100.00;102260.63;5097765;28;20023;-51
2023/08/21 06:12:15;;;;;;;7.65;5.10;;;;;;;18.06;100.00;102263.91;5104794;28;20039;-50
2023/08/21 06:14:40;;;;;;;12.52;6.30;;;;;;;18.09;100.00;102263.66;5097496;28;20447;-51
2023/08/21 06:17:06;;;;;;;11.68;6.20;;;;;;;18.16;100.00;102264.81;5087982;28;20386;-53
2023/08/21 06:19:31;;;;;;;12.40;5.68;;;;;;;18.20;100.00;102268.97;5093082;28;20039;-50
2023/08/21 06:21:57;;;;;;;12.45;6.03;;;;;;;18.25;100.00;102271.22;5096817;28;20474;-50
2023/08/21 06:24:23;;;;;;;10.73;6.22;;;;;;;18.28;100.00;102274.50;5099594;28;20067;-51
2023/08/21 06:26:48;;;;;;;11.55;5.72;;;;;;;18.38;100.00;102282.63;5097719;28;20074;-51
2023/08/21 06:29:14;;;;;;;13.18;6.47;;;;;;;18.42;100.00;102280.53;5100196;28;20036;-52
2023/08/21 06:31:39;;;;;;;12.70;6.47;;;;;;;18.47;100.00;102276.47;5096829;28;20421;-52
2023/08/21 06:34:05;;;;;;;12.27;6.82;;;;;;;18.54;100.00;102281.31;5100601;28;20033;-50
2023/08/21 06:36:30;;;;;;;13.02;6.68;;;;;;;18.60;100.00;102273.53;5102099;28;20016;-51
2023/08/21 06:38:55;;;;;;;13.30;5.93;;;;;;;18.67;100.00;102280.09;5093309;28;20039;-52
2023/08/21 06:41:21;;;;;;;10.02;6.40;;;;;;;18.76;100.00;102272.19;5102357;28;20012;-50
2023/08/21 06:43:46;;;;;;;11.60;6.10;;;;;;;18.85;100.00;102271.38;5097812;28;20036;-51
2023/08/21 06:46:12;;;;;;;14.77;6.85;;;;;;;18.92;100.00;102280.63;5097798;28;20012;-54
2023/08/21 06:48:40;;;;;;;11.95;6.43;;;;;;;19.00;100.00;102278.09;5099400;28;20125;-50
2023/08/21 06:51:06;;;;;;;10.10;6.03;;;;;;;19.08;100.00;102280.09;5100248;28;20028;-51
2023/08/21 06:53:31;;;;;;;14.07;6.28;;;;;;;19.19;100.00;102273.75;5094226;28;20043;-51
2023/08/21 06:55:56;;;;;;;14.02;6.05;;;;;;;19.32;100.00;102273.47;5099483;28;20042;-50
2023/08/21 06:58:22;;;;;;;11.98;6.20;;;;;;;19.45;100.00;102267.78;5096235;28;20054;-51
2023/08/21 07:00:47;;;;;;;12.00;5.90;;;;;;;19.54;99.58;102273.19;5100218;28;20527;-52
2023/08/21 07:03:12;;;;;;;18.77;6.43;;;;;;;19.63;98.78;102284.13;5099408;28;20050;-50
2023/08/21 07:05:38;;;;;;;11.18;5.97;;;;;;;19.68;99.35;102280.00;5101569;28;20106;-51
2023/08/21 07:08:03;;;;;;;12.93;5.93;;;;;;;19.78;98.30;102280.03;5098911;28;20024;-51
2023/08/21 07:10:29;;;;;;;12.23;5.93;;;;;;;19.89;97.82;102282.56;5090838;28;20028;-53
2023/08/21 07:12:55;;;;;;;16.50;6.20;;;;;;;20.04;95.88;102279.44;5094098;28;20452;-51
2023/08/21 07:15:20;;;;;;;14.70;6.90;;;;;;;20.19;94.63;102274.44;5097180;28;20397;-53
2023/08/21 07:17:46;;;;;;;11.45;6.20;;;;;;;20.48;93.34;102287.81;5094930;28;20028;-50
2023/08/21 07:20:11;;;;;;;12.38;6.00;;;;;;;20.71;94.59;102277.53;5096494;28;20024;-51
2023/08/21 07:22:37;;;;;;;14.13;5.65;;;;;;;20.90;93.50;102290.09;5102688;28;20074;-51
2023/08/21 07:25:04;;;;;;;11.55;5.88;;;;;;;21.22;90.26;102276.09;5100951;28;20466;-51
2023/08/21 07:27:33;;;;;;;13.98;5.60;;;;;;;21.39;85.63;102279.81;5081343;28;20034;-51
2023/08/21 07:29:58;;;;;;;9.60;5.20;;;;;;;21.63;87.10;102286.47;5102321;28;20086;-53
2023/08/21 07:32:24;;;;;;;14.25;5.60;;;;;;;21.83;84.45;102289.00;5101442;28;20536;-53
2023/08/21 07:34:54;;;;;;;12.20;5.15;;;;;;;22.14;84.75;102282.13;5103564;28;20040;-51
2023/08/21 07:37:20;;;;;;;9.75;4.50;;;;;;;22.39;81.68;102289.59;5102075;28;20474;-54
2023/08/21 07:39:45;;;;;;;8.63;3.90;;;;;;;22.62;80.71;102285.31;5103329;28;20062;-53
2023/08/21 07:42:12;;;;;;;10.35;4.30;;;;;;;22.71;79.29;102284.34;5098805;28;20059;-52
2023/08/21 07:44:39;;;;;;;7.20;3.55;;;;;;;22.88;78.39;102287.09;5100176;28;20024;-51
2023/08/21 07:47:05;;;;;;;11.65;2.95;;;;;;;23.07;74.44;102289.59;5093510;28;20024;-51
2023/08/21 07:49:31;;;;;;;9.73;3.22;;;;;;;23.18;74.77;102284.88;5098509;28;20036;-51
2023/08/21 07:51:56;;;;;;;6.40;2.50;;;;;;;23.31;73.27;102293.34;5102936;28;20465;-52
2023/08/21 07:54:22;;;;;;;6.95;2.90;;;;;;;23.46;72.06;102293.56;5092447;28;20035;-51
2023/08/21 07:56:47;;;;;;;9.48;2.85;;;;;;;23.54;71.32;102295.44;5099502;28;20115;-51
2023/08/21 07:59:12;;;;;;;9.85;2.90;;;;;;;23.53;72.33;102294.59;5100498;28;20100;-52
2023/08/21 08:01:38;;;;;;;8.43;2.90;;;;;;;23.85;70.95;102298.38;5097295;28;20417;-50
2023/08/21 08:04:04;;;;;;;7.47;2.90;;;;;;;24.08;70.31;102294.94;5095539;28;20032;-51
2023/08/21 08:06:30;;;;;;;10.00;2.60;;;;;;;24.16;67.81;102290.38;5097110;28;20496;-51
2023/08/21 08:08:55;;;;;;;7.60;2.60;;;;;;;24.42;69.96;102294.69;5095198;28;20567;-51
2023/08/21 08:11:20;;;;;;;5.90;2.20;;;;;;;24.66;69.06;102293.78;5103147;28;20028;-51
2023/08/21 08:13:46;;;;;;;6.95;2.60;;;;;;;24.88;65.98;102300.34;5101352;28;20294;-52
2023/08/21 08:16:11;;;;;;;8.90;2.67;;;;;;;25.06;64.39;102307.38;5090669;28;20028;-52
2023/08/21 08:18:36;;;;;;;6.67;2.37;;;;;;;25.23;63.48;102294.53;5103432;28;20518;-52
2023/08/21 08:21:02;;;;;;;5.63;2.42;;;;;;;25.36;62.79;102305.69;5102127;28;20310;-51
2023/08/21 08:23:27;;;;;;;10.75;2.60;;;;;;;25.67;61.20;102299.34;5100176;28;20020;-51
2023/08/21 08:25:53;;;;;;;6.85;2.22;;;;;;;25.73;59.87;102308.66;5102746;28;20473;-52
2023/08/21 08:28:18;;;;;;;7.00;2.60;;;;;;;25.87;61.71;102309.75;5101340;28;20031;-51
2023/08/21 08:30:43;;;;;;;7.57;2.58;;;;;;;26.09;63.32;102300.69;5099756;28;20085;-52
2023/08/21 08:33:09;;;;;;;9.82;2.67;;;;;;;26.14;60.67;102291.97;5099602;28;20035;-52
2023/08/21 08:35:34;;;;;;;9.43;2.50;;;;;;;26.35;58.17;102293.97;5099977;28;20474;-51
2023/08/21 08:37:59;;;;;;;8.48;2.47;;;;;;;26.48;59.15;102290.56;5099588;28;20092;-53
2023/08/21 08:40:25;;;;;;;6.95;2.20;;;;;;;26.83;57.20;102309.94;5101258;28;20545;-51
2023/08/21 08:42:50;;;;;;;6.40;2.22;;;;;;;26.94;57.07;102296.66;5094090;28;20028;-52
2023/08/21 08:45:27;;;;;;;10.13;2.58;;;;;;;26.92;56.70;102298.75;5100629;28;20084;-51
2023/08/21 08:47:53;;;;;;;5.47;2.08;;;;;;;27.16;54.51;102291.25;5100575;28;20051;-51
2023/08/21 08:50:20;;;;;;;7.88;2.30;;;;;;;27.41;56.50;102304.56;5097563;28;20015;-54
2023/08/21 08:52:45;;;;;;;10.23;2.35;;;;;;;27.35;55.01;102306.19;5098309;28;20473;-51
2023/08/21 08:55:11;;;;;;;8.43;2.20;;;;;;;27.39;52.13;102304.75;5100622;28;20027;-50
2023/08/21 08:57:36;;;;;;;9.63;2.30;;;;;;;27.50;53.93;102301.50;5100197;28;20034;-49
2023/08/21 09:00:05;;;;;;;8.30;2.10;;;;;;;27.37;54.12;102309.56;5101448;28;20032;-53
2023/08/21 09:02:30;;;;;;;7.38;2.10;;;;;;;27.38;53.52;102305.81;5095942;28;20121;-50
2023/08/21 09:04:56;;;;;;;7.65;2.00;;;;;;;27.40;56.06;102301.00;5100577;28;20486;-50
2023/08/21 09:07:21;;;;;;;8.40;2.30;;;;;;;27.32;53.65;102298.38;5095544;28;20046;-51
2023/08/21 09:09:52;;;;;;;7.18;2.35;;;;;;;27.28;53.53;102292.44;5100228;28;20424;-50
2023/08/21 09:12:19;;;;;;;8.75;2.50;;;;;;;27.29;55.22;102293.31;5097514;28;20024;-51
2023/08/21 09:14:45;;;;;;;9.27;1.98;;;;;;;27.18;52.63;102302.84;5102988;28;20038;-51
2023/08/21 09:17:11;;;;;;;4.95;1.98;;;;;;;27.34;54.63;102288.13;5100865;28;20027;-52
2023/08/21 09:19:36;;;;;;;7.35;2.20;;;;;;;27.39;54.72;102285.66;5101604;28;20027;-53
2023/08/21 09:22:14;;;;;;;7.90;2.40;;;;;;;27.63;55.01;102286.31;5097644;28;20473;-50
2023/08/21 09:24:40;;;;;;;8.40;2.20;;;;;;;27.75;53.70;102292.09;5097521;28;20070;-50
2023/08/21 09:27:13;;;;;;;9.27;2.70;;;;;;;28.14;51.74;102291.56;5100331;28;20016;-50
2023/08/21 09:29:42;;;;;;;4.72;1.75;;;;;;;28.32;52.26;102288.31;5103507;28;20028;-51
2023/08/21 09:32:07;;;;;;;8.15;2.20;;;;;;;28.72;50.68;102284.97;5097146;28;20077;-51
2023/08/21 09:34:37;;;;;;;5.82;1.63;;;;;;;28.90;50.75;102270.75;5099630;28;20024;-51
2023/08/21 09:37:07;;;;;;;6.30;2.53;;;;;;;29.09;49.76;102274.56;5098824;28;20491;-51
2023/08/21 09:39:36;;;;;;;8.40;1.75;;;;;;;29.34;49.98;102277.59;5099250;28;20028;-51
2023/08/21 09:42:08;;;;;;;6.80;2.20;;;;;;;29.56;49.99;102281.03;5095412;28;20027;-50
2023/08/21 09:44:43;;;;;;;9.38;2.00;;;;;;;29.51;50.39;102275.31;5102511;28;20038;-51
2023/08/21 09:47:11;;;;;;;6.30;1.70;;;;;;;29.75;48.67;102281.22;5103266;28;20032;-51
2023/08/21 09:49:39;;;;;;;7.72;1.90;;;;;;;29.95;45.57;102278.50;5103226;28;20046;-50
2023/08/21 09:52:06;;;;;;;18.17;2.80;;;;;;;29.99;45.42;102279.75;5104403;28;20024;-52
2023/08/21 09:54:33;;;;;;;7.97;2.00;;;;;;;30.18;45.21;102275.31;5100818;28;20461;-52
2023/08/21 09:57:03;;;;;;;6.15;1.77;;;;;;;30.63;46.05;102272.66;5103240;28;20092;-50
2023/08/21 09:59:32;;;;;;;9.02;1.92;;;;;;;30.86;43.26;102269.41;5097466;28;20506;-49
2023/08/21 10:02:01;;;;;;;8.00;2.00;;;;;;;30.91;43.47;102274.22;5089713;28;20035;-51
2023/08/21 10:04:27;;;;;;;;;;;;;;;31.34;48.06;102270.81;5102833;28;20051;-50
2023/08/21 10:06:55;;;;;;;4.53;1.75;;;;;;;31.35;41.10;102267.84;5098187;28;20006;-49
2023/08/21 10:09:23;;;;;;;6.70;1.65;;;;;;;31.42;41.23;102264.22;5101613;28;20030;-50
2023/08/21 10:11:48;;;;;;;4.50;1.63;;;;;;;31.73;42.97;102260.59;5099401;28;20024;-50
2023/08/21 10:14:14;;;;;;;8.52;1.80;;;;;;;31.82;43.10;102261.97;5097939;28;20024;-50
2023/08/21 10:16:41;;;;;;;6.05;1.88;;;;;;;31.66;41.22;102257.91;5097772;28;20089;-50
2023/08/21 10:19:07;;;;;;;7.25;1.67;;;;;;;31.84;37.35;102243.38;5105308;28;20025;-49
2023/08/21 10:21:39;;;;;;;10.15;2.08;;;;;;;32.12;38.24;102249.47;5098788;28;20036;-49
2023/08/21 10:24:04;;;;;;;3.63;1.35;;;;;;;32.27;38.97;102244.44;5101111;28;20034;-49
2023/08/21 10:26:30;;;;;;;5.13;1.30;;;;;;;32.43;36.36;102242.97;5096509;28;20024;-50
2023/08/21 10:29:01;;;;;;;4.13;1.60;;;;;;;32.15;38.46;102246.28;5102714;28;20034;-49
2023/08/21 10:31:27;;;;;;;7.75;1.80;;;;;;;32.53;37.71;102246.03;5104438;28;20123;-50
2023/08/21 10:33:53;;;;;;;4.65;1.65;;;;;;;32.62;38.00;102249.31;5105808;28;20059;-50
2023/08/21 10:37:06;;;;;;;6.72;1.60;;;;;;;32.95;41.00;102253.53;5099729;28;20405;-50
2023/08/21 10:39:33;;;;;;;7.47;2.05;;;;;;;32.85;36.40;102237.56;5100300;28;20073;-49
2023/08/21 10:42:14;;;;;;;3.85;1.45;;;;;;;33.05;38.16;102241.97;5104771;28;20024;-50
2023/08/21 10:44:42;;;;;;;5.35;1.48;;;;;;;32.99;36.64;102247.34;5098097;28;20027;-51
2023/08/21 10:47:23;;;;;;;3.97;1.70;;;;;;;32.95;37.17;102239.78;5104410;28;20098;-50
2023/08/21 10:49:53;;;;;;;6.32;1.48;;;;;;;32.70;36.06;102253.66;5101652;28;20051;-50
2023/08/21 10:52:25;;;;;;;5.50;1.52;;;;;;;32.96;36.47;102252.47;5099772;28;20032;-51
2023/08/21 10:55:00;;;;;;;3.50;1.13;;;;;;;32.78;37.65;102254.19;5098775;28;20031;-50
2023/08/21 10:57:28;;;;;;;4.82;1.95;;;;;;;32.84;36.40;102255.16;5097557;28;20028;-53
2023/08/21 10:59:55;;;;;;;5.53;1.85;;;;;;;33.08;36.90;102242.31;5100570;28;20038;-51
2023/08/21 11:02:21;;;;;;;4.85;1.38;;;;;;;33.03;36.33;102252.38;5101186;28;20421;-53
2023/08/21 11:04:48;;;;;;;5.03;1.45;;;;;;;33.19;35.13;102257.22;5100736;28;20024;-52
2023/08/21 11:07:14;;;;;;;4.80;1.40;;;;;;;33.09;35.34;102249.53;5100653;28;20019;-51
2023/08/21 11:09:39;;;;;;;6.45;1.48;;;;;;;33.17;33.70;102243.69;5099425;28;20034;-51
2023/08/21 11:12:24;;;;;;;5.97;1.67;;;;;;;33.33;36.33;102252.34;5095481;28;20082;-52
2023/08/21 11:14:50;;;;;;;7.40;1.50;;;;;;;33.24;33.65;102242.75;5096408;28;20412;-54
2023/08/21 11:17:18;;;;;;;6.15;1.67;;;;;;;33.15;34.20;102239.47;5097059;28;20027;-53
2023/08/21 11:19:43;;;;;;;3.42;1.52;;;;;;;33.29;35.38;102240.13;5098903;28;20504;-51